Time;durP1;ratioP1;P1;durP2;ratioP2;P2;SDS_P1;SDS_P2;PMS_P1;PMS_P2;Temp;Humidity;BMP_temperature;BMP_pressure;BME280_temperature;BME280_humidity;BME280_pressure;Samples;Min_cycle;Max_cycle;Signal;HPM_P1;HPM_P2
2021/12/06 00:02:23;;;;;;;;;;;;;;;-144.99;100.00;52656.00;5051332;28;20330;-63
2021/12/06 00:04:51;;;;;;;;;;;;;;;-144.99;100.00;52713.09;5050406;28;20079;-64
2021/12/06 00:07:19;;;;;;;;;;;;;;;-144.99;100.00;52690.66;5051063;28;20457;-63
2021/12/06 00:09:45;;;;;;;;;;;;;;;-144.99;100.00;52680.47;5045933;28;19988;-63
2021/12/06 00:12:13;;;;;;;;;;;;;;;-144.99;100.00;52619.31;5050591;28;19984;-64
2021/12/06 00:14:41;;;;;;;;;;;;;;;-144.99;100.00;52664.16;5050726;28;20029;-63
2021/12/06 00:17:08;;;;;;;;;;;;;;;-144.99;100.00;52668.22;5051250;28;19981;-63
2021/12/06 00:19:35;;;;;;;;;;;;;;;-144.99;100.00;52668.22;5048465;28;19974;-62
2021/12/06 00:22:06;;;;;;;;;;;;;;;-144.99;100.00;52635.63;5050125;28;20072;-62
2021/12/06 00:24:32;;;;;;;;;;;;;;;-144.99;100.00;52635.63;5051197;28;20505;-61
2021/12/06 00:26:59;;;;;;;;;;;;;;;-144.99;100.00;52651.94;5051132;28;19984;-60
2021/12/06 00:29:25;;;;;;;;;;;;;;;-144.99;100.00;52651.94;5050919;28;19985;-62
2021/12/06 00:31:52;;;;;;;;;;;;;;;-144.99;100.00;52672.31;5044057;28;19978;-62
2021/12/06 00:34:20;;;;;;;;;;;;;;;-144.99;100.00;52643.78;5049828;28;19993;-61
2021/12/06 00:36:54;;;;;;;;;;;;;;;-144.99;100.00;52625.44;5051712;28;20247;-62
2021/12/06 00:39:23;;;;;;;;;;;;;;;-144.99;100.00;52635.63;5046485;28;20012;-62
2021/12/06 00:41:50;;;;;;;;;;;;;;;-144.99;100.00;52674.34;5049446;28;19977;-62
2021/12/06 00:44:16;;;;;;;;;;;;;;;-144.99;100.00;52672.31;5050500;28;19997;-61
2021/12/06 00:46:42;;;;;;;;;;;;;;;-144.99;100.00;52686.59;5050772;28;19973;-62
2021/12/06 00:49:10;;;;;;;;;;;;;;;-144.99;100.00;52676.38;5045945;28;19988;-62
2021/12/06 00:51:37;;;;;;;;;;;;;;;-144.99;100.00;52651.94;5043985;28;19973;-61
2021/12/06 00:54:03;;;;;;;;;;;;;;;-144.99;100.00;52643.78;5048539;28;19997;-62
2021/12/06 00:56:31;;;;;;;;;;;;;;;-144.99;100.00;52643.78;5051138;28;20372;-61
2021/12/06 00:58:57;;;;;;;;;;;;;;;-144.99;100.00;52631.53;5050455;28;19983;-63
2021/12/06 01:01:24;;;;;;;;;;;;;;;-144.99;100.00;52674.34;5049353;28;19973;-62
2021/12/06 01:03:51;;;;;;;;;;;;;;;-144.99;100.00;52631.53;5047102;28;20036;-62
2021/12/06 01:06:17;;;;;;;;;;;;;;;-144.99;100.00;52647.84;5050187;28;20453;-61
2021/12/06 01:08:43;;;;;;;;;;;;;;;-144.99;100.00;52639.69;5050485;28;19994;-61
2021/12/06 01:11:11;;;;;;;;;;;;;;;-144.99;100.00;52635.63;5046496;28;19977;-61
2021/12/06 01:13:39;;;;;;;;;;;;;;;-144.99;100.00;52678.44;5048072;28;19996;-60
2021/12/06 01:16:06;;;;;;;;;;;;;;;-144.99;100.00;52631.53;5049739;28;19993;-60
2021/12/06 01:18:33;;;;;;;;;;;;;;;-144.99;100.00;52668.22;5050207;28;19982;-62
2021/12/06 01:21:06;;;;;;;;;;;;;;;-144.99;100.00;52651.94;5046105;28;20151;-62
2021/12/06 01:23:45;;;;;;;;;;;;;;;-144.99;100.00;52643.78;5049725;28;19993;-62
2021/12/06 01:26:29;;;;;;;;;;;;;;;-144.99;100.00;52631.53;5049660;28;19984;-62
2021/12/06 01:29:09;;;;;;;;;;;;;;;-144.99;100.00;52664.16;5048193;28;20092;-62
2021/12/06 01:31:46;;;;;;;;;;;;;;;-144.99;100.00;52704.94;5048338;28;19985;-62
2021/12/06 01:39:37;;;;;;;;;;;;;;;-144.99;100.00;52668.22;5049461;28;20368;-62
2021/12/06 01:42:05;;;;;;;;;;;;;;;-144.99;100.00;52627.47;5045328;28;20004;-61
2021/12/06 01:44:34;;;;;;;;;;;;;;;-144.99;100.00;52631.53;5048317;28;20477;-63
2021/12/06 01:47:02;;;;;;;;;;;;;;;-144.99;100.00;52619.31;5049958;28;19977;-63
2021/12/06 01:49:30;;;;;;;;;;;;;;;-144.99;100.00;52696.78;5052561;28;19978;-63
2021/12/06 01:51:58;;;;;;;;;;;;;;;-144.99;100.00;52700.84;5050645;28;20003;-63
2021/12/06 01:54:24;;;;;;;;;;;;;;;-144.99;100.00;52658.03;5052498;28;20000;-63
2021/12/06 01:56:52;;;;;;;;;;;;;;;-144.99;100.00;52660.09;5053087;28;20357;-62
2021/12/06 01:59:19;;;;;;;;;;;;;;;-144.99;100.00;52623.38;5052463;28;20238;-62
2021/12/06 02:01:46;;;;;;;;;;;;;;;-144.99;100.00;52670.28;5050666;28;20360;-61
2021/12/06 02:04:13;;;;;;;;;;;;;;;-144.99;100.00;52656.00;5049260;28;19993;-62
2021/12/06 02:06:41;;;;;;;;;;;;;;;-144.99;100.00;52668.22;5052467;28;20099;-61
2021/12/06 02:09:09;;;;;;;;;;;;;;;-144.99;100.00;52660.09;5052481;28;19977;-66
2021/12/06 02:11:38;;;;;;;;;;;;;;;-144.99;100.00;52615.25;5051270;28;19987;-63
2021/12/06 02:14:17;;;;;;;;;;;;;;;-144.99;100.00;52651.94;5050008;28;19993;-63
2021/12/06 02:16:57;;;;;;;;;;;;;;;-144.99;100.00;52662.13;5048922;28;19993;-63
2021/12/06 02:19:31;;;;;;;;;;;;;;;-144.99;100.00;52639.69;5052290;28;20021;-63
2021/12/06 02:22:00;;;;;;;;;;;;;;;-144.99;100.00;52639.69;5051350;28;19977;-64
2021/12/06 02:24:27;;;;;;;;;;;;;;;-144.99;100.00;52680.47;5051994;28;20466;-62
2021/12/06 02:26:53;;;;;;;;;;;;;;;-144.99;100.00;52649.88;5050277;28;19985;-64
2021/12/06 02:29:20;;;;;;;;;;;;;;;-144.99;100.00;52656.00;5051951;28;19984;-64
2021/12/06 02:31:47;;;;;;;;;;;;;;;-144.99;100.00;52672.31;5052379;28;19981;-64
2021/12/06 02:34:13;;;;;;;;;;;;;;;-144.99;100.00;52635.63;5049666;28;20000;-63
2021/12/06 02:36:40;;;;;;;;;;;;;;;-144.99;100.00;52664.16;5052268;28;19993;-63
2021/12/06 02:39:10;;;;;;;;;;;;;;;-144.99;100.00;52651.94;5051887;28;19981;-63
2021/12/06 02:41:36;;;;;;;;;;;;;;;-144.99;100.00;52668.22;5051792;28;20638;-63
2021/12/06 02:44:04;;;;;;;;;;;;;;;-144.99;100.00;52680.47;5049581;28;19993;-64
2021/12/06 02:46:30;;;;;;;;;;;;;;;-144.99;100.00;52635.63;5052046;28;19980;-63
2021/12/06 02:48:57;;;;;;;;;;;;;;;-144.99;100.00;52643.78;5051329;28;20428;-62
2021/12/06 02:51:26;;;;;;;;;;;;;;;-144.99;100.00;52668.22;5051963;28;20406;-63
2021/12/06 02:53:52;;;;;;;;;;;;;;;-144.99;100.00;52670.28;5048628;28;19996;-64
2021/12/06 02:56:32;;;;;;;;;;;;;;;-144.99;100.00;52629.50;5050873;28;20088;-63
2021/12/06 02:59:00;;;;;;;;;;;;;;;-144.99;100.00;52651.94;5051000;28;19984;-62
2021/12/06 03:01:28;;;;;;;;;;;;;;;-144.99;100.00;52666.19;5051691;28;20140;-63
2021/12/06 03:03:55;;;;;;;;;;;;;;;-144.99;100.00;52664.16;5047452;28;20465;-61
2021/12/06 03:06:22;;;;;;;;;;;;;;;-144.99;100.00;52664.16;5046491;28;19978;-61
2021/12/06 03:08:52;;;;;;;;;;;;;;;-144.99;100.00;52645.81;5051700;28;20087;-61
2021/12/06 03:11:23;;;;;;;;;;;;;;;-144.99;100.00;52668.22;5051971;28;20522;-61
2021/12/06 03:13:49;;;;;;;;;;;;;;;-144.99;100.00;52700.84;5048030;28;19997;-61
2021/12/06 03:16:16;;;;;;;;;;;;;;;-144.99;100.00;52635.63;5051639;28;20107;-61
2021/12/06 03:18:43;;;;;;;;;;;;;;;-144.99;100.00;52643.78;5050997;28;19984;-61
2021/12/06 03:21:09;;;;;;;;;;;;;;;-144.99;100.00;52700.84;5048796;28;19977;-68
2021/12/06 03:23:35;;;;;;;;;;;;;;;-144.99;100.00;52676.38;5050959;28;19993;-67
2021/12/06 03:26:02;;;;;;;;;;;;;;;-144.99;100.00;52641.72;5043566;28;20466;-68
2021/12/06 03:28:30;;;;;;;;;;;;;;;-144.99;100.00;52676.38;5050967;28;20056;-67
2021/12/06 03:30:56;;;;;;;;;;;;;;;-144.99;100.00;52647.84;5050626;28;19997;-66
2021/12/06 03:33:23;;;;;;;;;;;;;;;-144.99;100.00;52676.38;5050774;28;19993;-62
2021/12/06 03:35:49;;;;;;;;;;;;;;;-144.99;100.00;52676.38;5048602;28;20116;-61
2021/12/06 03:38:15;;;;;;;;;;;;;;;-144.99;100.00;52660.09;5050747;28;20503;-60
2021/12/06 03:40:42;;;;;;;;;;;;;;;-144.99;100.00;52643.78;5050691;28;19977;-61
2021/12/06 03:43:08;;;;;;;;;;;;;;;-144.99;100.00;52672.31;5050389;28;20169;-60
2021/12/06 03:45:36;;;;;;;;;;;;;;;-144.99;100.00;52672.31;5049445;28;19977;-60
2021/12/06 03:48:03;;;;;;;;;;;;;;;-144.99;100.00;52676.38;5050121;28;19978;-60
2021/12/06 03:50:29;;;;;;;;;;;;;;;-144.99;100.00;52625.44;5049813;28;19991;-61
2021/12/06 03:52:56;;;;;;;;;;;;;;;-144.99;100.00;52676.38;5048701;28;20052;-60
2021/12/06 03:55:22;;;;;;;;;;;;;;;-144.99;100.00;52680.47;5050495;28;19977;-61
2021/12/06 03:57:48;;;;;;;;;;;;;;;-144.99;100.00;52653.97;5050805;28;19977;-60
2021/12/06 04:00:15;;;;;;;;;;;;;;;-144.99;100.00;52704.94;5050486;28;20012;-60
2021/12/06 04:02:43;;;;;;;;;;;;;;;-144.99;100.00;52651.94;5050733;28;20040;-60
2021/12/06 04:05:10;;;;;;;;;;;;;;;-144.99;100.00;52656.00;5049137;28;19984;-60
2021/12/06 04:07:36;;;;;;;;;;;;;;;-144.99;100.00;52660.09;5050606;28;19983;-60
2021/12/06 04:10:04;;;;;;;;;;;;;;;-144.99;100.00;52700.84;5049759;28;19988;-60
2021/12/06 04:12:30;;;;;;;;;;;;;;;-144.99;100.00;52696.78;5050654;28;20380;-59
2021/12/06 04:14:58;;;;;;;;;;;;;;;-144.99;100.00;52682.50;5045511;28;19993;-60
2021/12/06 04:17:24;;;;;;;;;;;;;;;-144.99;100.00;52709.00;5044977;28;20046;-60
2021/12/06 04:19:52;;;;;;;;;;;;;;;-144.99;100.00;52668.22;5047822;28;19988;-59
2021/12/06 04:22:19;;;;;;;;;;;;;;;-144.99;100.00;52656.00;5051495;28;19981;-60
2021/12/06 04:24:46;;;;;;;;;;;;;;;-144.99;100.00;52668.22;5048756;28;20035;-59
2021/12/06 04:27:15;;;;;;;;;;;;;;;-144.99;100.00;52664.16;5051204;28;20483;-60
2021/12/06 04:29:41;;;;;;;;;;;;;;;-144.99;100.00;52651.94;5050863;28;20031;-60
2021/12/06 04:32:08;;;;;;;;;;;;;;;-144.99;100.00;52680.47;5050346;28;20474;-64
2021/12/06 04:34:35;;;;;;;;;;;;;;;-144.99;100.00;52684.53;5047835;28;19995;-61
2021/12/06 04:37:03;;;;;;;;;;;;;;;-144.99;100.00;52668.22;5050313;28;20377;-63
2021/12/06 04:39:29;;;;;;;;;;;;;;;-144.99;100.00;52668.22;5050510;28;19977;-62
2021/12/06 04:41:56;;;;;;;;;;;;;;;-144.99;100.00;52680.47;5050035;28;19977;-63
2021/12/06 04:44:23;;;;;;;;;;;;;;;-144.99;100.00;52656.00;5049249;28;19993;-63
2021/12/06 04:46:50;;;;;;;;;;;;;;;-144.99;100.00;52651.94;5048133;28;19977;-63
2021/12/06 04:49:16;;;;;;;;;;;;;;;-144.99;100.00;52656.00;5049712;28;20104;-63
2021/12/06 04:51:44;;;;;;;;;;;;;;;-144.99;100.00;52692.69;5049827;28;19977;-63
2021/12/06 04:54:13;;;;;;;;;;;;;;;-144.99;100.00;52627.47;5048654;28;19993;-64
2021/12/06 04:56:41;;;;;;;;;;;;;;;-144.99;100.00;52658.03;5044454;28;19997;-61
2021/12/06 04:59:10;;;;;;;;;;;;;;;-144.99;100.00;52635.63;5049174;28;19984;-61
2021/12/06 05:01:37;;;;;;;;;;;;;;;-144.99;100.00;52678.44;5050034;28;19977;-59
2021/12/06 05:04:06;;;;;;;;;;;;;;;-144.99;100.00;52598.94;5046919;28;19996;-63
2021/12/06 05:06:36;;;;;;;;;;;;;;;-144.99;100.00;52615.25;5046150;28;20260;-62
2021/12/06 05:09:05;;;;;;;;;;;;;;;-144.99;100.00;52688.63;5048710;28;20323;-63
2021/12/06 05:11:33;;;;;;;;;;;;;;;-144.99;100.00;52658.03;5049584;28;19977;-62
2021/12/06 05:14:01;;;;;;;;;;;;;;;-144.99;100.00;52639.69;5047469;28;19993;-63
2021/12/06 05:16:27;;;;;;;;;;;;;;;-144.99;100.00;52629.50;5049878;28;20032;-62
2021/12/06 05:18:54;;;;;;;;;;;;;;;-144.99;100.00;52688.63;5043978;28;20000;-69
2021/12/06 05:21:20;;;;;;;;;;;;;;;-144.99;100.00;52676.38;5049131;28;19985;-61
2021/12/06 05:23:46;;;;;;;;;;;;;;;-144.99;100.00;52664.16;5049374;28;19981;-64
2021/12/06 05:26:13;;;;;;;;;;;;;;;-144.99;100.00;52668.22;5049123;28;19977;-62
2021/12/06 05:28:43;;;;;;;;;;;;;;;-144.99;100.00;52688.63;5044179;28;19974;-63
2021/12/06 05:31:15;;;;;;;;;;;;;;;-144.99;100.00;52680.47;5043656;28;20341;-63
2021/12/06 05:33:42;;;;;;;;;;;;;;;-144.99;100.00;52668.22;5049189;28;20032;-62
2021/12/06 05:36:09;;;;;;;;;;;;;;;-144.99;100.00;52719.19;5044049;28;19996;-63
2021/12/06 05:38:36;;;;;;;;;;;;;;;-144.99;100.00;52647.84;5047562;28;20387;-64
2021/12/06 05:41:03;;;;;;;;;;;;;;;-144.99;100.00;52656.00;5048746;28;19972;-64
2021/12/06 05:43:29;;;;;;;;;;;;;;;-144.99;100.00;52625.44;5049325;28;19997;-62
2021/12/06 05:45:57;;;;;;;;;;;;;;;-144.99;100.00;52641.72;5049069;28;19977;-62
2021/12/06 05:48:24;;;;;;;;;;;;;;;-144.99;100.00;52643.78;5046936;28;19977;-62
2021/12/06 05:50:50;;;;;;;;;;;;;;;-144.99;100.00;52664.16;5047277;28;19978;-62
2021/12/06 05:53:17;;;;;;;;;;;;;;;-144.99;100.00;52647.84;5048566;28;20001;-63
2021/12/06 05:55:44;;;;;;;;;;;;;;;-144.99;100.00;52619.31;5049290;28;19977;-63
2021/12/06 05:58:12;;;;;;;;;;;;;;;-144.99;100.00;52668.22;5049345;28;20000;-63
2021/12/06 06:00:39;;;;;;;;;;;;;;;-144.99;100.00;52631.53;5047355;28;19981;-63
2021/12/06 06:03:07;;;;;;;;;;;;;;;-144.99;100.00;52660.09;4348675;28;10000831;-63
2021/12/06 06:05:34;;;;;;;;;;;;;;;-144.99;100.00;52645.81;5045595;28;20078;-63
2021/12/06 06:08:01;;;;;;;;;;;;;;;-144.99;100.00;52651.94;5045659;28;19984;-63
2021/12/06 06:10:28;;;;;;;;;;;;;;;-144.99;100.00;52676.38;5045461;28;19992;-62
2021/12/06 06:12:54;;;;;;;;;;;;;;;-144.99;100.00;52682.50;5046041;28;19981;-62
2021/12/06 06:15:20;;;;;;;;;;;;;;;-144.99;100.00;52635.63;5045886;28;19988;-62
2021/12/06 06:17:47;;;;;;;;;;;;;;;-144.99;100.00;52668.22;5046028;28;19994;-63
2021/12/06 06:20:17;;;;;;;;;;;;;;;-144.99;100.00;52668.22;5044333;28;20227;-63
2021/12/06 06:22:43;;;;;;;;;;;;;;;-144.99;100.00;52623.38;5046174;28;19981;-63
2021/12/06 06:25:10;;;;;;;;;;;;;;;-144.99;100.00;52643.78;5044656;28;20076;-63
2021/12/06 06:27:36;;;;;;;;;;;;;;;-144.99;100.00;52635.63;5045874;28;20616;-63
2021/12/06 06:30:04;;;;;;;;;;;;;;;-144.99;100.00;52635.63;5045227;28;19981;-62
2021/12/06 06:32:30;;;;;;;;;;;;;;;-144.99;100.00;52676.38;5046199;28;20012;-62
2021/12/06 06:34:57;;;;;;;;;;;;;;;-144.99;100.00;52645.81;5048762;28;19997;-63
2021/12/06 06:37:25;;;;;;;;;;;;;;;-144.99;100.00;52651.94;5050518;28;20438;-62
2021/12/06 06:39:52;;;;;;;;;;;;;;;-144.99;100.00;52664.16;5051029;28;20495;-62
2021/12/06 06:42:22;;;;;;;;;;;;;;;-144.99;100.00;52653.97;5048797;28;19981;-62
2021/12/06 06:44:49;;;;;;;;;;;;;;;-144.99;100.00;52651.94;5050691;28;20001;-63
2021/12/06 06:47:15;;;;;;;;;;;;;;;-144.99;100.00;52670.28;5050444;28;19981;-63
2021/12/06 06:49:42;;;;;;;;;;;;;;;-144.99;100.00;52668.22;5050038;28;19986;-63
2021/12/06 06:52:08;;;;;;;;;;;;;;;-144.99;100.00;52645.81;5047897;28;19981;-63
2021/12/06 06:54:36;;;;;;;;;;;;;;;-144.99;100.00;52713.09;5048968;28;20497;-63
2021/12/06 06:57:03;;;;;;;;;;;;;;;-144.99;100.00;52709.00;5049189;28;20011;-63
2021/12/06 06:59:29;;;;;;;;;;;;;;;-144.99;100.00;52680.47;5049018;28;19987;-64
2021/12/06 07:01:56;;;;;;;;;;;;;;;-144.99;100.00;52639.69;5047794;28;20430;-64
2021/12/06 07:04:22;;;;;;;;;;;;;;;-144.99;100.00;52639.69;5047496;28;20005;-63
2021/12/06 07:06:49;;;;;;;;;;;;;;;-144.99;100.00;52643.78;5049360;28;19985;-63
2021/12/06 07:09:15;;;;;;;;;;;;;;;-144.99;100.00;52651.94;5049419;28;20036;-63
2021/12/06 07:11:45;;;;;;;;;;;;;;;-144.99;100.00;52676.38;5048792;28;19977;-62
2021/12/06 07:14:12;;;;;;;;;;;;;;;-144.99;100.00;52664.16;5046250;28;20043;-63
2021/12/06 07:16:38;;;;;;;;;;;;;;;-144.99;100.00;52635.63;5048666;28;20369;-62
2021/12/06 07:19:05;;;;;;;;;;;;;;;-144.99;100.00;52645.81;5048413;28;20505;-68
2021/12/06 07:21:31;;;;;;;;;;;;;;;-144.99;100.00;52674.34;5048755;28;19987;-68
2021/12/06 07:23:58;;;;;;;;;;;;;;;-144.99;100.00;52664.16;5046268;28;19997;-69
2021/12/06 07:26:24;;;;;;;;;;;;;;;-144.99;100.00;52639.69;5049110;28;19978;-68
2021/12/06 07:28:54;;;;;;;;;;;;;;;-144.99;100.00;52668.22;5048484;28;20000;-68
2021/12/06 07:31:21;;;;;;;;;;;;;;;-144.99;100.00;52668.22;5048575;28;20520;-69
2021/12/06 07:33:48;;;;;;;;;;;;;;;-144.99;100.00;52664.16;5039957;28;19998;-69
2021/12/06 07:36:15;;;;;;;;;;;;;;;-144.99;100.00;52641.72;5047607;28;20345;-69
2021/12/06 07:38:42;;;;;;;;;;;;;;;-144.99;100.00;52641.72;5048237;28;19993;-68
2021/12/06 07:41:09;;;;;;;;;;;;;;;-144.99;100.00;52656.00;5048853;28;20070;-69
2021/12/06 07:43:35;;;;;;;;;;;;;;;-144.99;100.00;52619.31;5046015;28;19993;-68
2021/12/06 07:46:04;;;;;;;;;;;;;;;-144.99;100.00;52678.44;5047032;28;19981;-69
2021/12/06 07:48:30;;;;;;;;;;;;;;;-144.99;100.00;52684.53;5045739;28;19981;-69
2021/12/06 07:50:56;;;;;;;;;;;;;;;-144.99;100.00;52647.84;5048274;28;19992;-68
2021/12/06 07:53:23;;;;;;;;;;;;;;;-144.99;100.00;52649.88;5048958;28;19997;-69
2021/12/06 07:55:50;;;;;;;;;;;;;;;-144.99;100.00;52704.94;5046987;28;19981;-68
2021/12/06 07:58:16;;;;;;;;;;;;;;;-144.99;100.00;52639.69;5049764;28;20008;-69
2021/12/06 08:00:44;;;;;;;;;;;;;;;-144.99;100.00;52684.53;5050140;28;19981;-69
2021/12/06 08:03:12;;;;;;;;;;;;;;;-144.99;100.00;52639.69;5048084;28;20047;-68
2021/12/06 08:05:39;;;;;;;;;;;;;;;-144.99;100.00;52688.63;5048977;28;19977;-69
2021/12/06 08:08:07;;;;;;;;;;;;;;;-144.99;100.00;52639.69;5049205;28;20710;-68
2021/12/06 08:10:34;;;;;;;;;;;;;;;-144.99;100.00;52635.63;5049241;28;19977;-69
2021/12/06 08:13:01;;;;;;;;;;;;;;;-144.99;100.00;52680.47;5047778;28;20512;-69
2021/12/06 08:15:27;;;;;;;;;;;;;;;-144.99;100.00;52698.81;5043344;28;19974;-69
2021/12/06 08:17:54;;;;;;;;;;;;;;;-144.99;100.00;52666.19;5045745;28;20477;-69
2021/12/06 08:20:22;;;;;;;;;;;;;;;-144.99;100.00;52711.03;5050030;28;19956;-70
2021/12/06 08:22:48;;;;;;;;;;;;;;;-144.99;100.00;52692.69;5051802;28;20508;-69
2021/12/06 08:25:16;;;;;;;;;;;;;;;-144.99;100.00;52706.97;5047831;28;20234;-69
2021/12/06 08:27:42;;;;;;;;;;;;;;;-144.99;100.00;52639.69;5047346;28;19978;-69
2021/12/06 08:30:10;;;;;;;;;;;;;;;-144.99;100.00;52639.69;5047953;28;20453;-69
2021/12/06 08:32:36;;;;;;;;;;;;;;;-144.99;100.00;52641.72;5048024;28;19977;-69
2021/12/06 08:35:04;;;;;;;;;;;;;;;-144.99;100.00;52594.84;5046536;28;20541;-69
2021/12/06 08:37:31;;;;;;;;;;;;;;;-144.99;100.00;52664.16;5048100;28;20096;-69
2021/12/06 08:39:58;;;;;;;;;;;;;;;-144.99;100.00;52639.69;5047987;28;19988;-69
2021/12/06 08:42:24;;;;;;;;;;;;;;;-144.99;100.00;52653.97;5048087;28;19981;-69
2021/12/06 08:44:51;;;;;;;;;;;;;;;-144.99;100.00;52672.31;5047377;28;20000;-69
2021/12/06 08:47:17;;;;;;;;;;;;;;;-144.99;100.00;52649.88;5039885;28;20075;-70
2021/12/06 08:49:45;;;;;;;;;;;;;;;-144.99;100.00;52656.00;5047006;28;19977;-69
2021/12/06 08:52:11;;;;;;;;;;;;;;;-144.99;100.00;52658.03;5047156;28;20514;-69
2021/12/06 08:54:39;;;;;;;;;;;;;;;-144.99;100.00;52647.84;5046856;28;20377;-69
2021/12/06 08:57:05;;;;;;;;;;;;;;;-144.99;100.00;52643.78;5042346;28;19997;-69
2021/12/06 08:59:32;;;;;;;;;;;;;;;-144.99;100.00;52647.84;5046637;28;20333;-69
2021/12/06 09:01:59;;;;;;;;;;;;;;;-144.99;100.00;52643.78;5047672;28;19981;-69
2021/12/06 09:04:27;;;;;;;;;;;;;;;-144.99;100.00;52688.63;5044551;28;20384;-69
2021/12/06 09:06:54;;;;;;;;;;;;;;;-144.99;100.00;52660.09;5044407;28;19980;-68
2021/12/06 09:09:21;;;;;;;;;;;;;;;-144.99;100.00;52651.94;5046764;28;20547;-70
2021/12/06 09:11:51;;;;;;;;;;;;;;;-144.99;100.00;52647.84;5047449;28;19981;-69
2021/12/06 09:14:18;;;;;;;;;;;;;;;-144.99;100.00;52684.53;5046080;28;20418;-68
2021/12/06 09:16:45;;;;;;;;;;;;;;;-144.99;100.00;52692.69;5047513;28;19978;-67
2021/12/06 09:19:12;;;;;;;;;;;;;;;-144.99;100.00;52635.63;5046446;28;19997;-68
2021/12/06 09:21:39;;;;;;;;;;;;;;;-144.99;100.00;52696.78;5046598;28;20416;-68
2021/12/06 09:24:07;;;;;;;;;;;;;;;-144.99;100.00;52656.00;5046739;28;20047;-69
2021/12/06 09:26:33;;;;;;;;;;;;;;;-144.99;100.00;52688.63;5047570;28;20246;-68
2021/12/06 09:29:02;;;;;;;;;;;;;;;-144.99;100.00;52660.09;5039933;28;20532;-68
2021/12/06 09:31:28;;;;;;;;;;;;;;;-144.99;100.00;52684.53;5046866;28;20102;-67
2021/12/06 09:33:55;;;;;;;;;;;;;;;-144.99;100.00;52647.84;5046046;28;20020;-69
2021/12/06 09:36:22;;;;;;;;;;;;;;;-144.99;100.00;52623.38;5046658;28;19981;-68
2021/12/06 09:38:49;;;;;;;;;;;;;;;-144.99;100.00;52639.69;5046192;28;19997;-68
2021/12/06 09:41:20;;;;;;;;;;;;;;;-144.99;100.00;52647.84;5046895;28;20366;-68
2021/12/06 09:43:47;;;;;;;;;;;;;;;-144.99;100.00;52637.66;5046611;28;19993;-67
2021/12/06 09:46:15;;;;;;;;;;;;;;;-144.99;100.00;52656.00;5046047;28;20341;-68
2021/12/06 09:48:42;;;;;;;;;;;;;;;-144.99;100.00;52660.09;5043670;28;19981;-69
2021/12/06 09:51:10;;;;;;;;;;;;;;;-144.99;100.00;52635.63;5046771;28;19978;-68
2021/12/06 09:53:39;;;;;;;;;;;;;;;-144.99;100.00;52619.31;5046721;28;20041;-68
2021/12/06 09:56:07;;;;;;;;;;;;;;;-144.99;100.00;52611.16;5047113;28;20027;-68
2021/12/06 09:58:34;;;;;;;;;;;;;;;-144.99;100.00;52672.31;5046549;28;19993;-68
2021/12/06 10:01:02;;;;;;;;;;;;;;;-144.99;100.00;52619.31;5045558;28;19985;-67
2021/12/06 10:03:30;;;;;;;;;;;;;;;-144.99;100.00;52631.53;5045974;28;20463;-67
2021/12/06 10:06:02;;;;;;;;;;;;;;;-144.99;100.00;52643.78;5045912;28;19981;-67
2021/12/06 10:08:28;;;;;;;;;;;;;;;-144.99;100.00;52639.69;5049451;28;20432;-68
2021/12/06 10:10:55;;;;;;;;;;;;;;;-144.99;98.92;52621.34;5049380;28;20042;-69
2021/12/06 10:13:21;;;;;;;;;;;;;;;-144.99;98.63;52647.84;5053781;28;20095;-69
2021/12/06 10:15:50;;;;;;;;;;;;;;;-144.99;99.57;52611.16;5051799;28;20004;-67
2021/12/06 10:18:19;;;;;;;;;;;;;;;-144.99;99.69;52621.34;5052304;28;20007;-68
2021/12/06 10:20:48;;;;;;;;;;;;;;;-144.99;97.74;52627.47;5051216;28;20474;-68
2021/12/06 10:23:15;;;;;;;;;;;;;;;-144.99;97.41;52633.59;5052388;28;19993;-67
2021/12/06 10:25:43;;;;;;;;;;;;;;;-144.99;98.81;52647.84;5053745;28;19985;-68
2021/12/06 10:28:10;;;;;;;;;;;;;;;-144.99;98.96;52611.16;5049990;28;20111;-68
2021/12/06 10:30:37;;;;;;;;;;;;;;;-144.99;98.88;52684.53;5049723;28;19977;-68
2021/12/06 10:33:06;;;;;;;;;;;;;;;-144.99;98.89;52607.09;5052128;28;20004;-69
2021/12/06 10:35:32;;;;;;;;;;;;;;;-144.99;98.34;52641.72;5050422;28;20511;-68
2021/12/06 10:38:00;;;;;;;;;;;;;;;-144.99;99.01;52603.00;5050169;28;19997;-68
2021/12/06 10:40:29;;;;;;;;;;;;;;;-144.99;98.80;52656.00;5048903;28;20004;-67
2021/12/06 10:42:56;;;;;;;;;;;;;;;-144.99;97.31;52615.25;5048978;28;19984;-67
2021/12/06 10:45:25;;;;;;;;;;;;;;;-144.99;95.25;52564.28;5049395;28;19981;-67
2021/12/06 10:48:05;;;;;;;;;;;;;;;-144.99;91.58;52598.94;5049839;28;19977;-68
2021/12/06 10:50:32;;;;;;;;;;;;;;;-144.99;84.53;52594.84;5044003;28;19977;-67
2021/12/06 10:53:00;;;;;;;;;;;;;;;-144.99;82.60;52598.94;5048392;28;19977;-68
2021/12/06 10:55:30;;;;;;;;;;;;;;;-144.99;82.36;52460.31;5049212;28;19977;-68
2021/12/06 10:57:58;;;;;;;;;;;;;;;-144.99;78.42;52590.78;5049544;28;20032;-68
2021/12/06 11:00:30;;;;;;;;;;;;;;;-144.99;77.28;52492.94;5048993;28;20007;-66
2021/12/06 11:02:56;;;;;;;;;;;;;;;-144.99;72.13;52598.94;5045251;28;20445;-67
2021/12/06 11:05:24;;;;;;;;;;;;;;;-144.99;74.54;52594.84;5051041;28;20413;-67
2021/12/06 11:07:56;;;;;;;;;;;;;;;-144.99;78.31;52582.63;5049795;28;19981;-67
2021/12/06 11:10:25;;;;;;;;;;;;;;;-144.99;81.95;52631.53;5050778;28;19984;-67
2021/12/06 11:13:06;;;;;;;;;;;;;;;-144.99;85.96;52633.59;5041968;28;19978;-68
2021/12/06 11:15:33;;;;;;;;;;;;;;;-144.99;88.77;52647.84;5046710;28;20454;-68
2021/12/06 11:18:00;;;;;;;;;;;;;;;-144.99;90.30;52623.38;5047228;28;20223;-68
2021/12/06 11:20:26;;;;;;;;;;;;;;;-144.99;91.62;52643.78;5043941;28;20003;-68
2021/12/06 11:22:53;;;;;;;;;;;;;;;-144.99;92.14;52633.59;5041051;28;19984;-67
2021/12/06 11:25:19;;;;;;;;;;;;;;;-144.99;91.47;52574.47;5046455;28;19996;-68
2021/12/06 11:27:48;;;;;;;;;;;;;;;-144.99;89.84;52558.16;5049657;28;19984;-68
2021/12/06 11:30:16;;;;;;;;;;;;;;;-144.99;86.23;52570.38;5041795;28;19987;-68
2021/12/06 11:32:44;;;;;;;;;;;;;;;-144.99;83.69;52566.31;5046638;28;19977;-69
2021/12/06 11:35:12;;;;;;;;;;;;;;;-144.99;80.48;52586.69;5048823;28;19981;-68
2021/12/06 11:37:39;;;;;;;;;;;;;;;-144.99;78.34;52603.00;5048556;28;20204;-69
2021/12/06 11:40:08;;;;;;;;;;;;;;;-144.99;77.18;52590.78;5048926;28;20470;-69
2021/12/06 11:42:47;;;;;;;;;;;;;;;-144.99;78.29;52574.47;5048834;28;19988;-68
2021/12/06 11:45:15;;;;;;;;;;;;;;;-144.99;79.48;52651.94;5047185;28;19988;-68
2021/12/06 11:47:42;;;;;;;;;;;;;;;-144.99;83.52;52623.38;5045161;28;19981;-68
2021/12/06 11:50:08;;;;;;;;;;;;;;;-144.99;83.69;52643.78;5048693;28;19981;-69
2021/12/06 11:52:35;;;;;;;;;;;;;;;-144.99;84.80;52627.47;5048054;28;19981;-69
2021/12/06 11:55:04;;;;;;;;;;;;;;;-144.99;85.36;52603.00;5046160;28;19997;-68
2021/12/06 11:57:32;;;;;;;;;;;;;;;-144.99;87.74;52607.09;5048942;28;20016;-68
2021/12/06 12:00:01;;;;;;;;;;;;;;;-144.99;87.32;52558.16;5045583;28;20003;-69
2021/12/06 12:02:36;;;;;;;;;;;;;;;-144.99;84.30;52639.69;5047566;28;20003;-69
2021/12/06 12:05:14;;;;;;;;;;;;;;;-144.99;81.96;52556.13;5044633;28;20063;-69
2021/12/06 12:07:53;;;;;;;;;;;;;;;-144.99;81.10;52607.09;5045486;28;19984;-69
2021/12/06 12:10:27;;;;;;;;;;;;;;;-144.99;80.06;52619.31;5043909;28;19980;-68
2021/12/06 12:12:53;;;;;;;;;;;;;;;-144.99;80.64;52660.09;5048063;28;19981;-68
2021/12/06 12:15:19;;;;;;;;;;;;;;;-144.99;82.81;52594.84;5046527;28;19988;-70
2021/12/06 12:17:49;;;;;;;;;;;;;;;-144.99;85.16;52704.94;5048911;28;19981;-69
2021/12/06 12:20:16;;;;;;;;;;;;;;;-144.99;88.10;52651.94;5048360;28;19981;-68
2021/12/06 12:22:48;;;;;;;;;;;;;;;-144.99;90.00;52643.78;5049516;28;20349;-69
2021/12/06 12:25:22;;;;;;;;;;;;;;;-144.99;90.12;52656.00;5047416;28;22297;-68
2021/12/06 12:27:56;;;;;;;;;;;;;;;-144.99;91.24;52684.53;5046352;28;20059;-68